sensor_id;sensor_type;location;lat;lon;timestamp;P1;durP1;ratioP1;P2;durP2;ratioP2
11008;SDS011;5557;51.670;7.788;2023-11-21T00:00:35;18.53;;;12.73;;
11008;SDS011;5557;51.670;7.788;2023-11-21T00:03:02;23.10;;;13.20;;
11008;SDS011;5557;51.670;7.788;2023-11-21T00:05:30;22.70;;;13.57;;
11008;SDS011;5557;51.670;7.788;2023-11-21T00:07:57;20.53;;;13.50;;
11008;SDS011;5557;51.670;7.788;2023-11-21T00:10:24;18.60;;;13.90;;
11008;SDS011;5557;51.670;7.788;2023-11-21T00:12:51;19.80;;;13.60;;
11008;SDS011;5557;51.670;7.788;2023-11-21T00:15:21;18.43;;;13.73;;
11008;SDS011;5557;51.670;7.788;2023-11-21T00:17:48;23.77;;;14.07;;
11008;SDS011;5557;51.670;7.788;2023-11-21T00:20:16;21.03;;;13.37;;
11008;SDS011;5557;51.670;7.788;2023-11-21T00:22:43;19.37;;;14.20;;
11008;SDS011;5557;51.670;7.788;2023-11-21T00:25:10;21.83;;;13.03;;
11008;SDS011;5557;51.670;7.788;2023-11-21T00:27:37;18.17;;;14.23;;
11008;SDS011;5557;51.670;7.788;2023-11-21T00:30:05;21.80;;;13.93;;
11008;SDS011;5557;51.670;7.788;2023-11-21T00:32:35;19.63;;;14.10;;
11008;SDS011;5557;51.670;7.788;2023-11-21T00:35:04;24.73;;;14.40;;
11008;SDS011;5557;51.670;7.788;2023-11-21T00:37:32;21.80;;;13.97;;
11008;SDS011;5557;51.670;7.788;2023-11-21T00:39:59;19.57;;;13.37;;
11008;SDS011;5557;51.670;7.788;2023-11-21T00:42:29;29.17;;;14.87;;
11008;SDS011;5557;51.670;7.788;2023-11-21T00:44:56;20.90;;;13.63;;
11008;SDS011;5557;51.670;7.788;2023-11-21T00:47:23;20.90;;;14.60;;
11008;SDS011;5557;51.670;7.788;2023-11-21T00:49:50;22.60;;;15.13;;
11008;SDS011;5557;51.670;7.788;2023-11-21T00:52:17;26.27;;;14.80;;
11008;SDS011;5557;51.670;7.788;2023-11-21T00:54:44;22.83;;;13.87;;
11008;SDS011;5557;51.670;7.788;2023-11-21T00:57:11;17.07;;;14.30;;
11008;SDS011;5557;51.670;7.788;2023-11-21T00:59:38;28.37;;;15.67;;
11008;SDS011;5557;51.670;7.788;2023-11-21T01:02:05;28.63;;;15.00;;
11008;SDS011;5557;51.670;7.788;2023-11-21T01:04:32;26.23;;;14.30;;
11008;SDS011;5557;51.670;7.788;2023-11-21T01:06:59;22.40;;;14.47;;
11008;SDS011;5557;51.670;7.788;2023-11-21T01:09:26;20.33;;;13.93;;
11008;SDS011;5557;51.670;7.788;2023-11-21T01:11:54;27.37;;;14.97;;
11008;SDS011;5557;51.670;7.788;2023-11-21T01:14:21;26.90;;;15.37;;
11008;SDS011;5557;51.670;7.788;2023-11-21T01:16:48;19.73;;;14.03;;
11008;SDS011;5557;51.670;7.788;2023-11-21T01:19:15;19.90;;;14.57;;
11008;SDS011;5557;51.670;7.788;2023-11-21T01:21:42;25.90;;;15.50;;
11008;SDS011;5557;51.670;7.788;2023-11-21T01:24:09;26.20;;;13.80;;
11008;SDS011;5557;51.670;7.788;2023-11-21T01:26:36;23.97;;;14.27;;
11008;SDS011;5557;51.670;7.788;2023-11-21T01:29:03;24.70;;;14.73;;
11008;SDS011;5557;51.670;7.788;2023-11-21T01:31:30;21.93;;;15.70;;
11008;SDS011;5557;51.670;7.788;2023-11-21T01:34:01;20.63;;;14.13;;
11008;SDS011;5557;51.670;7.788;2023-11-21T01:36:31;27.07;;;15.73;;
11008;SDS011;5557;51.670;7.788;2023-11-21T01:38:59;22.50;;;15.40;;
11008;SDS011;5557;51.670;7.788;2023-11-21T01:41:27;32.03;;;15.20;;
11008;SDS011;5557;51.670;7.788;2023-11-21T01:43:55;28.67;;;14.03;;
11008;SDS011;5557;51.670;7.788;2023-11-21T01:46:22;23.87;;;15.80;;
11008;SDS011;5557;51.670;7.788;2023-11-21T01:48:50;19.10;;;14.23;;
11008;SDS011;5557;51.670;7.788;2023-11-21T01:51:19;30.57;;;15.50;;
11008;SDS011;5557;51.670;7.788;2023-11-21T01:53:46;33.73;;;16.03;;
11008;SDS011;5557;51.670;7.788;2023-11-21T01:56:14;24.73;;;15.50;;
11008;SDS011;5557;51.670;7.788;2023-11-21T01:58:41;33.53;;;15.73;;
11008;SDS011;5557;51.670;7.788;2023-11-21T02:01:09;28.73;;;15.60;;
11008;SDS011;5557;51.670;7.788;2023-11-21T02:03:36;21.70;;;15.17;;
11008;SDS011;5557;51.670;7.788;2023-11-21T02:06:03;24.20;;;15.27;;
11008;SDS011;5557;51.670;7.788;2023-11-21T02:08:31;27.90;;;16.37;;
11008;SDS011;5557;51.670;7.788;2023-11-21T02:10:59;24.60;;;15.63;;
11008;SDS011;5557;51.670;7.788;2023-11-21T02:13:26;31.10;;;16.30;;
11008;SDS011;5557;51.670;7.788;2023-11-21T02:15:53;20.73;;;14.60;;
11008;SDS011;5557;51.670;7.788;2023-11-21T02:18:21;21.33;;;15.40;;
11008;SDS011;5557;51.670;7.788;2023-11-21T02:20:49;30.37;;;16.43;;
11008;SDS011;5557;51.670;7.788;2023-11-21T02:23:16;31.30;;;16.83;;
11008;SDS011;5557;51.670;7.788;2023-11-21T02:25:44;28.80;;;16.90;;
11008;SDS011;5557;51.670;7.788;2023-11-21T02:28:11;28.20;;;17.90;;
11008;SDS011;5557;51.670;7.788;2023-11-21T02:30:39;31.50;;;17.03;;
11008;SDS011;5557;51.670;7.788;2023-11-21T02:33:07;31.40;;;17.37;;
11008;SDS011;5557;51.670;7.788;2023-11-21T02:35:34;29.23;;;17.43;;
11008;SDS011;5557;51.670;7.788;2023-11-21T02:38:02;29.90;;;18.37;;
11008;SDS011;5557;51.670;7.788;2023-11-21T02:40:29;31.23;;;17.13;;
11008;SDS011;5557;51.670;7.788;2023-11-21T02:42:56;31.13;;;17.80;;
11008;SDS011;5557;51.670;7.788;2023-11-21T02:45:26;31.63;;;18.87;;
11008;SDS011;5557;51.670;7.788;2023-11-21T02:47:53;32.90;;;16.57;;
11008;SDS011;5557;51.670;7.788;2023-11-21T02:50:24;30.13;;;17.23;;
11008;SDS011;5557;51.670;7.788;2023-11-21T02:52:51;33.30;;;18.43;;
11008;SDS011;5557;51.670;7.788;2023-11-21T02:55:18;37.17;;;18.20;;
11008;SDS011;5557;51.670;7.788;2023-11-21T02:57:46;27.53;;;17.27;;
11008;SDS011;5557;51.670;7.788;2023-11-21T03:00:13;33.93;;;17.90;;
11008;SDS011;5557;51.670;7.788;2023-11-21T03:02:41;30.90;;;17.63;;
11008;SDS011;5557;51.670;7.788;2023-11-21T03:05:10;30.03;;;16.30;;
11008;SDS011;5557;51.670;7.788;2023-11-21T03:07:37;31.70;;;18.03;;
11008;SDS011;5557;51.670;7.788;2023-11-21T03:10:08;24.73;;;16.90;;
11008;SDS011;5557;51.670;7.788;2023-11-21T03:12:36;27.63;;;16.67;;
11008;SDS011;5557;51.670;7.788;2023-11-21T03:15:06;28.27;;;18.17;;
11008;SDS011;5557;51.670;7.788;2023-11-21T03:17:35;26.27;;;17.80;;
11008;SDS011;5557;51.670;7.788;2023-11-21T03:20:02;35.07;;;18.63;;
11008;SDS011;5557;51.670;7.788;2023-11-21T03:22:31;33.80;;;17.63;;
11008;SDS011;5557;51.670;7.788;2023-11-21T03:24:58;35.57;;;17.77;;
11008;SDS011;5557;51.670;7.788;2023-11-21T03:27:25;23.00;;;17.13;;
11008;SDS011;5557;51.670;7.788;2023-11-21T03:29:52;24.63;;;17.83;;
11008;SDS011;5557;51.670;7.788;2023-11-21T03:32:21;27.27;;;17.70;;
11008;SDS011;5557;51.670;7.788;2023-11-21T03:34:55;31.90;;;18.50;;
11008;SDS011;5557;51.670;7.788;2023-11-21T03:37:25;26.03;;;18.27;;
11008;SDS011;5557;51.670;7.788;2023-11-21T03:39:55;27.67;;;18.30;;
11008;SDS011;5557;51.670;7.788;2023-11-21T03:42:23;28.50;;;18.83;;
11008;SDS011;5557;51.670;7.788;2023-11-21T03:44:53;23.20;;;16.40;;
11008;SDS011;5557;51.670;7.788;2023-11-21T03:47:20;34.30;;;18.23;;
11008;SDS011;5557;51.670;7.788;2023-11-21T03:49:47;26.00;;;17.57;;
11008;SDS011;5557;51.670;7.788;2023-11-21T03:52:14;23.13;;;16.13;;
11008;SDS011;5557;51.670;7.788;2023-11-21T03:54:41;26.73;;;16.33;;
11008;SDS011;5557;51.670;7.788;2023-11-21T03:57:09;28.53;;;17.93;;
11008;SDS011;5557;51.670;7.788;2023-11-21T03:59:39;36.63;;;17.57;;
11008;SDS011;5557;51.670;7.788;2023-11-21T04:02:07;27.43;;;17.80;;
11008;SDS011;5557;51.670;7.788;2023-11-21T04:04:35;25.17;;;18.50;;
11008;SDS011;5557;51.670;7.788;2023-11-21T04:07:03;31.07;;;17.60;;
11008;SDS011;5557;51.670;7.788;2023-11-21T04:09:31;34.87;;;18.07;;
11008;SDS011;5557;51.670;7.788;2023-11-21T04:11:58;29.73;;;19.30;;
11008;SDS011;5557;51.670;7.788;2023-11-21T04:14:25;34.10;;;18.27;;
11008;SDS011;5557;51.670;7.788;2023-11-21T04:16:52;32.10;;;17.70;;
11008;SDS011;5557;51.670;7.788;2023-11-21T04:19:20;34.40;;;17.20;;
11008;SDS011;5557;51.670;7.788;2023-11-21T04:21:47;39.40;;;18.47;;
11008;SDS011;5557;51.670;7.788;2023-11-21T04:24:14;25.63;;;17.63;;
11008;SDS011;5557;51.670;7.788;2023-11-21T04:26:43;28.63;;;17.37;;
11008;SDS011;5557;51.670;7.788;2023-11-21T04:29:10;41.50;;;19.57;;
11008;SDS011;5557;51.670;7.788;2023-11-21T04:31:37;32.67;;;17.90;;
11008;SDS011;5557;51.670;7.788;2023-11-21T04:34:04;34.57;;;18.87;;
11008;SDS011;5557;51.670;7.788;2023-11-21T04:36:31;34.33;;;20.00;;
11008;SDS011;5557;51.670;7.788;2023-11-21T04:38:58;30.77;;;17.63;;
11008;SDS011;5557;51.670;7.788;2023-11-21T04:41:25;30.43;;;17.70;;
11008;SDS011;5557;51.670;7.788;2023-11-21T04:43:52;36.13;;;18.23;;
11008;SDS011;5557;51.670;7.788;2023-11-21T04:46:19;34.40;;;20.67;;
11008;SDS011;5557;51.670;7.788;2023-11-21T04:48:46;35.97;;;19.93;;
11008;SDS011;5557;51.670;7.788;2023-11-21T04:51:13;28.40;;;17.80;;
11008;SDS011;5557;51.670;7.788;2023-11-21T04:53:40;32.30;;;18.87;;
11008;SDS011;5557;51.670;7.788;2023-11-21T04:56:08;38.70;;;18.90;;
11008;SDS011;5557;51.670;7.788;2023-11-21T04:58:35;31.63;;;18.63;;
11008;SDS011;5557;51.670;7.788;2023-11-21T05:01:02;31.23;;;18.37;;
11008;SDS011;5557;51.670;7.788;2023-11-21T05:03:33;29.73;;;20.00;;
11008;SDS011;5557;51.670;7.788;2023-11-21T05:06:01;38.50;;;18.23;;
11008;SDS011;5557;51.670;7.788;2023-11-21T05:08:28;28.73;;;18.57;;
11008;SDS011;5557;51.670;7.788;2023-11-21T05:10:55;32.77;;;18.20;;
11008;SDS011;5557;51.670;7.788;2023-11-21T05:13:22;38.53;;;19.73;;
11008;SDS011;5557;51.670;7.788;2023-11-21T05:15:54;41.03;;;18.80;;
11008;SDS011;5557;51.670;7.788;2023-11-21T05:18:23;34.27;;;20.50;;
11008;SDS011;5557;51.670;7.788;2023-11-21T05:20:53;31.40;;;18.17;;
11008;SDS011;5557;51.670;7.788;2023-11-21T05:23:20;38.83;;;18.13;;
11008;SDS011;5557;51.670;7.788;2023-11-21T05:25:47;33.10;;;20.13;;
11008;SDS011;5557;51.670;7.788;2023-11-21T05:28:14;36.40;;;18.73;;
11008;SDS011;5557;51.670;7.788;2023-11-21T05:30:41;42.73;;;19.53;;
11008;SDS011;5557;51.670;7.788;2023-11-21T05:33:09;30.40;;;18.40;;
11008;SDS011;5557;51.670;7.788;2023-11-21T05:35:36;32.90;;;19.70;;
11008;SDS011;5557;51.670;7.788;2023-11-21T05:38:03;29.33;;;18.00;;
11008;SDS011;5557;51.670;7.788;2023-11-21T05:40:31;35.13;;;19.23;;
11008;SDS011;5557;51.670;7.788;2023-11-21T05:42:58;30.27;;;19.20;;
11008;SDS011;5557;51.670;7.788;2023-11-21T05:45:25;32.43;;;19.10;;
11008;SDS011;5557;51.670;7.788;2023-11-21T05:47:52;32.70;;;19.47;;
11008;SDS011;5557;51.670;7.788;2023-11-21T05:50:19;42.63;;;22.33;;
11008;SDS011;5557;51.670;7.788;2023-11-21T05:52:47;42.57;;;21.57;;
11008;SDS011;5557;51.670;7.788;2023-11-21T05:55:14;38.73;;;18.57;;
11008;SDS011;5557;51.670;7.788;2023-11-21T05:57:42;42.90;;;20.63;;
11008;SDS011;5557;51.670;7.788;2023-11-21T06:00:11;34.17;;;19.97;;
11008;SDS011;5557;51.670;7.788;2023-11-21T06:02:48;31.47;;;20.60;;
11008;SDS011;5557;51.670;7.788;2023-11-21T06:05:23;32.07;;;19.63;;
11008;SDS011;5557;51.670;7.788;2023-11-21T06:07:52;30.30;;;19.80;;
11008;SDS011;5557;51.670;7.788;2023-11-21T06:10:20;37.27;;;19.47;;
11008;SDS011;5557;51.670;7.788;2023-11-21T06:12:51;56.63;;;21.00;;
11008;SDS011;5557;51.670;7.788;2023-11-21T06:15:18;41.60;;;20.13;;
11008;SDS011;5557;51.670;7.788;2023-11-21T06:17:47;35.00;;;21.70;;
11008;SDS011;5557;51.670;7.788;2023-11-21T06:20:20;36.87;;;19.90;;
11008;SDS011;5557;51.670;7.788;2023-11-21T06:22:48;38.33;;;20.23;;
11008;SDS011;5557;51.670;7.788;2023-11-21T06:25:19;43.80;;;23.70;;
11008;SDS011;5557;51.670;7.788;2023-11-21T06:27:47;35.27;;;20.73;;
11008;SDS011;5557;51.670;7.788;2023-11-21T06:30:14;45.13;;;23.60;;
11008;SDS011;5557;51.670;7.788;2023-11-21T06:32:42;53.13;;;23.90;;
11008;SDS011;5557;51.670;7.788;2023-11-21T06:35:14;53.63;;;25.50;;
11008;SDS011;5557;51.670;7.788;2023-11-21T06:37:43;50.73;;;24.80;;
11008;SDS011;5557;51.670;7.788;2023-11-21T06:40:18;45.93;;;24.73;;
11008;SDS011;5557;51.670;7.788;2023-11-21T06:42:46;63.20;;;25.40;;
11008;SDS011;5557;51.670;7.788;2023-11-21T06:45:14;64.77;;;26.40;;
11008;SDS011;5557;51.670;7.788;2023-11-21T06:47:42;58.07;;;25.97;;
11008;SDS011;5557;51.670;7.788;2023-11-21T06:50:10;58.50;;;27.80;;
11008;SDS011;5557;51.670;7.788;2023-11-21T06:52:37;56.87;;;26.90;;
11008;SDS011;5557;51.670;7.788;2023-11-21T06:55:05;53.07;;;24.43;;
11008;SDS011;5557;51.670;7.788;2023-11-21T06:57:35;63.03;;;28.57;;
11008;SDS011;5557;51.670;7.788;2023-11-21T07:00:03;78.20;;;38.90;;
11008;SDS011;5557;51.670;7.788;2023-11-21T07:02:31;68.30;;;28.53;;
11008;SDS011;5557;51.670;7.788;2023-11-21T07:04:58;56.90;;;26.10;;
11008;SDS011;5557;51.670;7.788;2023-11-21T07:07:26;57.33;;;25.27;;
11008;SDS011;5557;51.670;7.788;2023-11-21T07:09:54;53.67;;;24.50;;
11008;SDS011;5557;51.670;7.788;2023-11-21T07:12:21;48.27;;;23.43;;
11008;SDS011;5557;51.670;7.788;2023-11-21T07:14:50;49.50;;;24.30;;
11008;SDS011;5557;51.670;7.788;2023-11-21T07:17:17;48.93;;;24.30;;
11008;SDS011;5557;51.670;7.788;2023-11-21T07:19:44;34.87;;;20.63;;
11008;SDS011;5557;51.670;7.788;2023-11-21T07:22:11;44.23;;;22.97;;
11008;SDS011;5557;51.670;7.788;2023-11-21T07:24:40;33.73;;;20.70;;
11008;SDS011;5557;51.670;7.788;2023-11-21T07:27:07;36.13;;;20.50;;
11008;SDS011;5557;51.670;7.788;2023-11-21T07:29:34;42.03;;;19.67;;
11008;SDS011;5557;51.670;7.788;2023-11-21T07:32:01;36.57;;;20.07;;
11008;SDS011;5557;51.670;7.788;2023-11-21T07:34:29;41.60;;;21.63;;
11008;SDS011;5557;51.670;7.788;2023-11-21T07:36:59;35.90;;;21.97;;
11008;SDS011;5557;51.670;7.788;2023-11-21T07:39:26;38.50;;;23.03;;
11008;SDS011;5557;51.670;7.788;2023-11-21T07:41:53;41.33;;;23.53;;
11008;SDS011;5557;51.670;7.788;2023-11-21T07:44:20;48.77;;;22.50;;
11008;SDS011;5557;51.670;7.788;2023-11-21T07:46:48;49.27;;;24.67;;
11008;SDS011;5557;51.670;7.788;2023-11-21T07:49:16;53.43;;;26.23;;
11008;SDS011;5557;51.670;7.788;2023-11-21T07:51:47;58.40;;;24.53;;
11008;SDS011;5557;51.670;7.788;2023-11-21T07:54:14;57.67;;;26.43;;
11008;SDS011;5557;51.670;7.788;2023-11-21T07:56:42;56.63;;;26.67;;
11008;SDS011;5557;51.670;7.788;2023-11-21T07:59:09;64.47;;;24.80;;
11008;SDS011;5557;51.670;7.788;2023-11-21T08:01:37;52.47;;;24.40;;
11008;SDS011;5557;51.670;7.788;2023-11-21T08:04:06;59.67;;;26.43;;
11008;SDS011;5557;51.670;7.788;2023-11-21T08:06:34;61.50;;;27.17;;
11008;SDS011;5557;51.670;7.788;2023-11-21T08:09:02;61.40;;;26.13;;
11008;SDS011;5557;51.670;7.788;2023-11-21T08:11:29;62.20;;;26.53;;
11008;SDS011;5557;51.670;7.788;2023-11-21T08:13:58;60.43;;;26.77;;
11008;SDS011;5557;51.670;7.788;2023-11-21T08:16:26;61.67;;;28.00;;
11008;SDS011;5557;51.670;7.788;2023-11-21T08:18:54;55.17;;;25.80;;
11008;SDS011;5557;51.670;7.788;2023-11-21T08:21:21;61.13;;;27.63;;
11008;SDS011;5557;51.670;7.788;2023-11-21T08:23:50;60.37;;;25.73;;
11008;SDS011;5557;51.670;7.788;2023-11-21T08:26:21;54.87;;;26.10;;
11008;SDS011;5557;51.670;7.788;2023-11-21T08:28:49;59.07;;;28.23;;
11008;SDS011;5557;51.670;7.788;2023-11-21T08:31:23;77.37;;;30.03;;
11008;SDS011;5557;51.670;7.788;2023-11-21T08:34:04;72.07;;;31.40;;
11008;SDS011;5557;51.670;7.788;2023-11-21T08:36:42;61.63;;;28.73;;
11008;SDS011;5557;51.670;7.788;2023-11-21T08:39:10;66.23;;;27.57;;
11008;SDS011;5557;51.670;7.788;2023-11-21T08:41:37;73.13;;;31.33;;
11008;SDS011;5557;51.670;7.788;2023-11-21T08:44:04;68.67;;;29.80;;
11008;SDS011;5557;51.670;7.788;2023-11-21T08:46:33;66.23;;;28.73;;
11008;SDS011;5557;51.670;7.788;2023-11-21T08:49:01;66.60;;;28.23;;
11008;SDS011;5557;51.670;7.788;2023-11-21T08:51:28;65.33;;;29.10;;
11008;SDS011;5557;51.670;7.788;2023-11-21T08:53:55;67.90;;;29.23;;
11008;SDS011;5557;51.670;7.788;2023-11-21T08:56:26;68.57;;;30.03;;
11008;SDS011;5557;51.670;7.788;2023-11-21T08:58:53;76.40;;;31.27;;
11008;SDS011;5557;51.670;7.788;2023-11-21T09:01:20;70.73;;;28.17;;
11008;SDS011;5557;51.670;7.788;2023-11-21T09:03:47;70.03;;;28.00;;
11008;SDS011;5557;51.670;7.788;2023-11-21T09:06:16;71.97;;;30.87;;
11008;SDS011;5557;51.670;7.788;2023-11-21T09:08:43;74.73;;;31.07;;
11008;SDS011;5557;51.670;7.788;2023-11-21T09:11:10;71.43;;;28.53;;
11008;SDS011;5557;51.670;7.788;2023-11-21T09:13:37;65.07;;;26.80;;
11008;SDS011;5557;51.670;7.788;2023-11-21T09:16:04;73.60;;;28.20;;
11008;SDS011;5557;51.670;7.788;2023-11-21T09:18:32;63.97;;;28.43;;
11008;SDS011;5557;51.670;7.788;2023-11-21T09:20:59;75.90;;;27.73;;
11008;SDS011;5557;51.670;7.788;2023-11-21T09:23:26;70.83;;;26.73;;
11008;SDS011;5557;51.670;7.788;2023-11-21T09:25:53;71.23;;;28.13;;
11008;SDS011;5557;51.670;7.788;2023-11-21T09:28:23;62.70;;;25.13;;
11008;SDS011;5557;51.670;7.788;2023-11-21T09:30:50;61.13;;;25.67;;
11008;SDS011;5557;51.670;7.788;2023-11-21T09:33:18;57.60;;;25.57;;
11008;SDS011;5557;51.670;7.788;2023-11-21T09:35:47;60.97;;;26.47;;
11008;SDS011;5557;51.670;7.788;2023-11-21T09:38:15;62.27;;;25.80;;
11008;SDS011;5557;51.670;7.788;2023-11-21T09:40:42;56.70;;;25.27;;
11008;SDS011;5557;51.670;7.788;2023-11-21T09:43:14;57.43;;;25.03;;
11008;SDS011;5557;51.670;7.788;2023-11-21T09:45:45;66.70;;;24.80;;
11008;SDS011;5557;51.670;7.788;2023-11-21T09:48:17;73.30;;;26.07;;
11008;SDS011;5557;51.670;7.788;2023-11-21T09:50:45;67.47;;;26.03;;
11008;SDS011;5557;51.670;7.788;2023-11-21T09:53:20;67.60;;;27.00;;
11008;SDS011;5557;51.670;7.788;2023-11-21T09:55:49;61.90;;;26.17;;
11008;SDS011;5557;51.670;7.788;2023-11-21T09:58:19;68.87;;;27.17;;
11008;SDS011;5557;51.670;7.788;2023-11-21T10:00:51;62.97;;;26.47;;
11008;SDS011;5557;51.670;7.788;2023-11-21T10:03:20;64.57;;;25.30;;
11008;SDS011;5557;51.670;7.788;2023-11-21T10:05:48;78.40;;;26.10;;
11008;SDS011;5557;51.670;7.788;2023-11-21T10:08:16;59.97;;;24.30;;
11008;SDS011;5557;51.670;7.788;2023-11-21T10:10:46;54.93;;;24.27;;
11008;SDS011;5557;51.670;7.788;2023-11-21T10:13:17;56.53;;;23.10;;
11008;SDS011;5557;51.670;7.788;2023-11-21T10:15:49;57.17;;;23.67;;
11008;SDS011;5557;51.670;7.788;2023-11-21T10:18:17;61.00;;;24.00;;
11008;SDS011;5557;51.670;7.788;2023-11-21T10:20:45;49.80;;;22.10;;
11008;SDS011;5557;51.670;7.788;2023-11-21T10:23:20;40.97;;;20.93;;
11008;SDS011;5557;51.670;7.788;2023-11-21T10:25:50;47.27;;;19.40;;
11008;SDS011;5557;51.670;7.788;2023-11-21T10:28:19;45.57;;;20.30;;
11008;SDS011;5557;51.670;7.788;2023-11-21T10:30:48;43.33;;;18.70;;
11008;SDS011;5557;51.670;7.788;2023-11-21T10:33:15;41.03;;;19.30;;
11008;SDS011;5557;51.670;7.788;2023-11-21T10:35:44;44.90;;;20.70;;
11008;SDS011;5557;51.670;7.788;2023-11-21T10:38:17;49.43;;;20.20;;
11008;SDS011;5557;51.670;7.788;2023-11-21T10:40:46;40.07;;;19.17;;
11008;SDS011;5557;51.670;7.788;2023-11-21T10:43:14;43.70;;;19.20;;
11008;SDS011;5557;51.670;7.788;2023-11-21T10:45:42;41.03;;;17.40;;
11008;SDS011;5557;51.670;7.788;2023-11-21T10:48:10;51.70;;;19.53;;
11008;SDS011;5557;51.670;7.788;2023-11-21T10:50:43;37.63;;;17.23;;
11008;SDS011;5557;51.670;7.788;2023-11-21T10:53:12;49.70;;;16.20;;
11008;SDS011;5557;51.670;7.788;2023-11-21T10:55:40;48.40;;;17.53;;
11008;SDS011;5557;51.670;7.788;2023-11-21T10:58:07;48.73;;;16.30;;
11008;SDS011;5557;51.670;7.788;2023-11-21T11:00:37;38.77;;;15.40;;
11008;SDS011;5557;51.670;7.788;2023-11-21T11:03:07;33.40;;;14.90;;
11008;SDS011;5557;51.670;7.788;2023-11-21T11:05:43;30.53;;;15.27;;
11008;SDS011;5557;51.670;7.788;2023-11-21T11:08:19;23.70;;;14.00;;
11008;SDS011;5557;51.670;7.788;2023-11-21T11:10:54;43.77;;;14.70;;
11008;SDS011;5557;51.670;7.788;2023-11-21T11:13:21;31.90;;;14.97;;
11008;SDS011;5557;51.670;7.788;2023-11-21T11:15:49;34.53;;;14.07;;
11008;SDS011;5557;51.670;7.788;2023-11-21T11:18:16;28.90;;;14.10;;
11008;SDS011;5557;51.670;7.788;2023-11-21T11:20:45;24.07;;;14.33;;
11008;SDS011;5557;51.670;7.788;2023-11-21T11:26:19;20.67;;;12.53;;
11008;SDS011;5557;51.670;7.788;2023-11-21T11:32:21;19.90;;;13.10;;
11008;SDS011;5557;51.670;7.788;2023-11-21T11:35:01;19.93;;;13.70;;
11008;SDS011;5557;51.670;7.788;2023-11-21T11:37:34;26.50;;;14.10;;
11008;SDS011;5557;51.670;7.788;2023-11-21T11:40:05;26.67;;;14.93;;
11008;SDS011;5557;51.670;7.788;2023-11-21T11:42:33;26.60;;;14.17;;
11008;SDS011;5557;51.670;7.788;2023-11-21T11:45:00;18.60;;;12.70;;
11008;SDS011;5557;51.670;7.788;2023-11-21T11:47:28;24.87;;;13.00;;
11008;SDS011;5557;51.670;7.788;2023-11-21T11:50:07;22.47;;;13.40;;
11008;SDS011;5557;51.670;7.788;2023-11-21T11:52:47;21.67;;;13.07;;
11008;SDS011;5557;51.670;7.788;2023-11-21T11:55:20;22.93;;;12.70;;
11008;SDS011;5557;51.670;7.788;2023-11-21T11:57:48;20.80;;;13.50;;
11008;SDS011;5557;51.670;7.788;2023-11-21T12:00:33;16.10;;;11.27;;
11008;SDS011;5557;51.670;7.788;2023-11-21T12:03:05;19.67;;;12.50;;
11008;SDS011;5557;51.670;7.788;2023-11-21T12:05:34;19.67;;;11.97;;
11008;SDS011;5557;51.670;7.788;2023-11-21T12:08:06;17.67;;;12.03;;
11008;SDS011;5557;51.670;7.788;2023-11-21T12:10:34;18.00;;;12.03;;
11008;SDS011;5557;51.670;7.788;2023-11-21T12:13:06;19.63;;;12.57;;
11008;SDS011;5557;51.670;7.788;2023-11-21T12:15:36;18.23;;;11.70;;
11008;SDS011;5557;51.670;7.788;2023-11-21T12:18:05;22.87;;;13.10;;
11008;SDS011;5557;51.670;7.788;2023-11-21T12:20:33;17.87;;;11.53;;
11008;SDS011;5557;51.670;7.788;2023-11-21T12:23:06;23.03;;;13.33;;
11008;SDS011;5557;51.670;7.788;2023-11-21T12:25:35;14.57;;;11.63;;
11008;SDS011;5557;51.670;7.788;2023-11-21T12:28:03;16.77;;;12.03;;
11008;SDS011;5557;51.670;7.788;2023-11-21T12:30:34;26.37;;;11.80;;
11008;SDS011;5557;51.670;7.788;2023-11-21T12:33:05;17.80;;;10.60;;
11008;SDS011;5557;51.670;7.788;2023-11-21T12:35:36;18.50;;;12.30;;
11008;SDS011;5557;51.670;7.788;2023-11-21T12:38:04;17.37;;;11.17;;
11008;SDS011;5557;51.670;7.788;2023-11-21T12:40:32;15.83;;;11.17;;
11008;SDS011;5557;51.670;7.788;2023-11-21T12:42:59;18.23;;;10.73;;
11008;SDS011;5557;51.670;7.788;2023-11-21T12:45:28;17.80;;;12.10;;
11008;SDS011;5557;51.670;7.788;2023-11-21T12:48:02;15.30;;;12.03;;
11008;SDS011;5557;51.670;7.788;2023-11-21T12:50:38;25.73;;;13.43;;
11008;SDS011;5557;51.670;7.788;2023-11-21T12:53:09;20.30;;;13.27;;
11008;SDS011;5557;51.670;7.788;2023-11-21T12:55:43;13.67;;;11.03;;
11008;SDS011;5557;51.670;7.788;2023-11-21T12:58:16;14.00;;;11.83;;
11008;SDS011;5557;51.670;7.788;2023-11-21T13:00:48;18.30;;;11.77;;
11008;SDS011;5557;51.670;7.788;2023-11-21T13:03:16;13.00;;;11.07;;
11008;SDS011;5557;51.670;7.788;2023-11-21T13:05:47;10.33;;;9.23;;
11008;SDS011;5557;51.670;7.788;2023-11-21T13:08:19;10.10;;;9.10;;
11008;SDS011;5557;51.670;7.788;2023-11-21T13:10:52;10.67;;;8.73;;
11008;SDS011;5557;51.670;7.788;2023-11-21T13:13:22;10.10;;;9.10;;
11008;SDS011;5557;51.670;7.788;2023-11-21T13:15:52;10.80;;;7.57;;
11008;SDS011;5557;51.670;7.788;2023-11-21T13:18:23;10.87;;;8.93;;
11008;SDS011;5557;51.670;7.788;2023-11-21T13:20:53;12.03;;;10.00;;
11008;SDS011;5557;51.670;7.788;2023-11-21T13:23:21;10.13;;;9.13;;
11008;SDS011;5557;51.670;7.788;2023-11-21T13:25:49;11.63;;;10.17;;
11008;SDS011;5557;51.670;7.788;2023-11-21T13:28:27;9.63;;;7.87;;
11008;SDS011;5557;51.670;7.788;2023-11-21T13:31:01;9.10;;;8.40;;
11008;SDS011;5557;51.670;7.788;2023-11-21T13:33:38;8.00;;;7.30;;
11008;SDS011;5557;51.670;7.788;2023-11-21T13:36:07;7.73;;;7.20;;
11008;SDS011;5557;51.670;7.788;2023-11-21T13:38:36;9.03;;;8.13;;
11008;SDS011;5557;51.670;7.788;2023-11-21T13:41:09;7.37;;;6.97;;
11008;SDS011;5557;51.670;7.788;2023-11-21T13:43:38;7.40;;;6.90;;
11008;SDS011;5557;51.670;7.788;2023-11-21T13:46:06;6.70;;;6.30;;
11008;SDS011;5557;51.670;7.788;2023-11-21T13:48:41;6.80;;;6.13;;
11008;SDS011;5557;51.670;7.788;2023-11-21T13:51:09;6.70;;;6.20;;
11008;SDS011;5557;51.670;7.788;2023-11-21T13:53:44;6.93;;;6.33;;
11008;SDS011;5557;51.670;7.788;2023-11-21T13:56:14;7.10;;;6.60;;
11008;SDS011;5557;51.670;7.788;2023-11-21T13:58:51;7.37;;;6.80;;
11008;SDS011;5557;51.670;7.788;2023-11-21T14:01:20;7.97;;;7.37;;
11008;SDS011;5557;51.670;7.788;2023-11-21T14:04:17;10.83;;;9.73;;
11008;SDS011;5557;51.670;7.788;2023-11-21T14:07:01;11.27;;;10.30;;
11008;SDS011;5557;51.670;7.788;2023-11-21T14:09:47;12.50;;;11.20;;
11008;SDS011;5557;51.670;7.788;2023-11-21T14:12:15;11.83;;;10.63;;
11008;SDS011;5557;51.670;7.788;2023-11-21T14:14:42;12.90;;;11.70;;
11008;SDS011;5557;51.670;7.788;2023-11-21T14:17:10;13.80;;;12.40;;
11008;SDS011;5557;51.670;7.788;2023-11-21T14:19:37;17.10;;;12.00;;
11008;SDS011;5557;51.670;7.788;2023-11-21T14:22:10;13.20;;;11.87;;
11008;SDS011;5557;51.670;7.788;2023-11-21T14:24:37;12.50;;;11.20;;
11008;SDS011;5557;51.670;7.788;2023-11-21T14:27:10;12.70;;;11.70;;
11008;SDS011;5557;51.670;7.788;2023-11-21T14:29:37;14.10;;;12.73;;
11008;SDS011;5557;51.670;7.788;2023-11-21T14:32:07;13.83;;;12.53;;
11008;SDS011;5557;51.670;7.788;2023-11-21T14:34:35;14.50;;;13.10;;
11008;SDS011;5557;51.670;7.788;2023-11-21T14:37:03;16.60;;;13.20;;
11008;SDS011;5557;51.670;7.788;2023-11-21T14:39:30;14.60;;;13.07;;
11008;SDS011;5557;51.670;7.788;2023-11-21T14:42:01;15.60;;;13.70;;
11008;SDS011;5557;51.670;7.788;2023-11-21T14:44:29;16.10;;;13.07;;
11008;SDS011;5557;51.670;7.788;2023-11-21T14:47:01;13.40;;;12.20;;
11008;SDS011;5557;51.670;7.788;2023-11-21T14:49:34;14.40;;;12.77;;
11008;SDS011;5557;51.670;7.788;2023-11-21T14:52:22;14.27;;;12.17;;